createdAt,value
2019-04-03T00:02:17.230Z,13.23
2019-04-03T00:04:47.667Z,13.67
2019-04-03T00:07:18.018Z,12.73
2019-04-03T00:09:48.455Z,12.20
2019-04-03T00:12:19.016Z,12.90
2019-04-03T00:14:49.393Z,14.47
2019-04-03T00:17:19.833Z,14.47
2019-04-03T00:19:50.216Z,14.50
2019-04-03T00:22:21.965Z,13.60
2019-04-03T00:24:52.908Z,14.40
2019-04-03T00:27:23.605Z,13.53
2019-04-03T00:29:53.973Z,13.93
2019-04-03T00:32:24.443Z,14.70
2019-04-03T00:34:54.927Z,14.10
2019-04-03T00:37:25.374Z,15.23
2019-04-03T00:39:55.708Z,15.33
2019-04-03T00:42:26.179Z,14.70
2019-04-03T00:44:56.781Z,14.73
2019-04-03T00:47:27.164Z,14.73
2019-04-03T00:49:57.597Z,14.93
2019-04-03T00:52:28.135Z,15.33
2019-04-03T00:54:58.614Z,14.57
2019-04-03T00:57:29.277Z,15.27
2019-04-03T00:59:59.814Z,15.77
2019-04-03T01:02:30.207Z,15.97
2019-04-03T01:05:00.658Z,16.07
2019-04-03T01:07:30.985Z,15.10
2019-04-03T01:10:01.599Z,16.10
2019-04-03T01:12:31.941Z,16.60
2019-04-03T01:15:02.583Z,16.60
2019-04-03T01:17:34.931Z,15.20
2019-04-03T01:20:06.338Z,14.73
2019-04-03T01:22:37.874Z,14.47
2019-04-03T01:25:09.436Z,13.53
2019-04-03T01:27:41.534Z,14.80
2019-04-03T01:30:14.014Z,13.77
2019-04-03T01:32:46.086Z,14.90
2019-04-03T01:35:17.436Z,14.67
2019-04-03T01:37:49.912Z,14.53
2019-04-03T01:40:21.081Z,14.57
2019-04-03T01:42:52.820Z,14.77
2019-04-03T01:45:25.916Z,14.63
2019-04-03T01:47:58.188Z,13.80
2019-04-03T01:50:28.703Z,14.80
2019-04-03T01:53:01.683Z,13.90
2019-04-03T01:55:34.001Z,13.40
2019-04-03T01:58:06.088Z,12.80
2019-04-03T02:00:37.641Z,10.87
2019-04-03T02:03:10.317Z,11.97
2019-04-03T02:05:43.274Z,12.30
2019-04-03T02:08:14.555Z,12.43
2019-04-03T02:10:45.438Z,11.63
2019-04-03T02:13:17.262Z,13.17
2019-04-03T02:15:52.223Z,12.83
2019-04-03T02:18:23.600Z,12.67
2019-04-03T02:20:57.325Z,12.73
2019-04-03T02:23:26.859Z,12.93
2019-04-03T02:25:57.308Z,12.77
2019-04-03T02:28:27.752Z,12.03
2019-04-03T02:30:58.233Z,11.43
2019-04-03T02:33:29.461Z,13.20
2019-04-03T02:36:00.245Z,11.20
2019-04-03T02:38:30.832Z,10.93
2019-04-03T02:41:03.451Z,10.90
2019-04-03T02:43:33.542Z,10.73
2019-04-03T02:46:04.443Z,10.80
2019-04-03T02:48:38.256Z,10.90
2019-04-03T02:51:07.395Z,10.57
2019-04-03T02:53:37.839Z,10.60
2019-04-03T02:56:11.838Z,10.77
2019-04-03T02:58:40.640Z,11.23
2019-04-03T03:01:11.210Z,12.13
2019-04-03T03:03:41.543Z,10.00
2019-04-03T03:06:12.655Z,10.17
2019-04-03T03:08:44.050Z,10.80
2019-04-03T03:11:14.606Z,9.60
2019-04-03T03:13:46.367Z,10.33
2019-04-03T03:16:18.423Z,10.17
2019-04-03T03:18:49.019Z,9.90
2019-04-03T03:21:21.523Z,10.30
2019-04-03T03:23:55.207Z,9.93
2019-04-03T03:26:24.684Z,9.87
2019-04-03T03:28:55.188Z,9.73
2019-04-03T03:31:56.374Z,9.13
2019-04-03T03:34:02.973Z,9.17
2019-04-03T03:36:30.403Z,9.80
2019-04-03T03:39:01.426Z,10.33
2019-04-03T03:41:32.825Z,10.10
2019-04-03T03:44:04.165Z,10.10
2019-04-03T03:46:34.810Z,9.60
2019-04-03T03:49:05.648Z,9.90
2019-04-03T03:51:36.097Z,10.23
2019-04-03T03:54:06.585Z,11.13
2019-04-03T03:56:37.031Z,10.23
2019-04-03T03:59:07.726Z,10.13
2019-04-03T04:01:38.341Z,10.37
2019-04-03T04:04:12.960Z,11.03
2019-04-03T04:06:40.898Z,10.53
2019-04-03T04:09:11.525Z,10.23
2019-04-03T04:11:41.999Z,10.27
2019-04-03T04:14:13.937Z,10.33
2019-04-03T04:16:44.728Z,11.33
2019-04-03T04:19:15.645Z,10.63
2019-04-03T04:21:46.531Z,10.63
2019-04-03T04:24:17.149Z,10.07
2019-04-03T04:26:49.937Z,10.40
2019-04-03T04:29:19.791Z,9.97
2019-04-03T04:31:50.307Z,10.70
2019-04-03T04:34:20.709Z,11.30
2019-04-03T04:36:51.263Z,10.83
2019-04-03T04:39:21.675Z,10.60
2019-04-03T04:41:52.228Z,11.03
2019-04-03T04:44:22.719Z,11.40
2019-04-03T04:46:53.173Z,11.70
2019-04-03T04:49:23.567Z,10.23
2019-04-03T04:51:56.589Z,11.17
2019-04-03T04:54:26.218Z,12.27
2019-04-03T04:56:56.623Z,12.47
2019-04-03T04:59:27.071Z,13.50
2019-04-03T05:01:57.565Z,12.37
2019-04-03T05:04:28.017Z,12.83
2019-04-03T05:07:00.135Z,12.60
2019-04-03T05:09:30.745Z,11.60
2019-04-03T05:12:01.246Z,12.23
2019-04-03T05:14:31.736Z,12.53
2019-04-03T05:17:02.233Z,15.13
2019-04-03T05:19:32.960Z,15.70
2019-04-03T05:22:03.284Z,15.67
2019-04-03T05:24:33.790Z,15.03
2019-04-03T05:27:07.106Z,13.13
2019-04-03T05:29:36.387Z,12.20
2019-04-03T05:32:09.918Z,12.30
2019-04-03T05:34:39.053Z,10.77
2019-04-03T05:37:11.655Z,10.97
2019-04-03T05:39:42.234Z,11.17
2019-04-03T05:42:12.919Z,27.13
2019-04-03T05:44:43.379Z,21.80
2019-04-03T05:47:13.875Z,18.30
2019-04-03T05:49:46.421Z,15.00
2019-04-03T05:52:16.410Z,13.23
2019-04-03T05:54:46.855Z,13.53
2019-04-03T05:57:17.402Z,13.40
2019-04-03T05:59:59.151Z,12.30
2019-04-03T06:02:21.985Z,12.23
2019-04-03T06:04:52.507Z,12.20
2019-04-03T06:07:23.124Z,14.37
2019-04-03T06:09:54.427Z,14.70
2019-04-03T06:12:25.753Z,13.17
2019-04-03T06:14:56.482Z,12.77
2019-04-03T06:17:26.959Z,12.60
2019-04-03T06:19:57.733Z,11.70
2019-04-03T06:22:28.181Z,12.70
2019-04-03T06:24:58.883Z,12.60
2019-04-03T06:27:29.558Z,12.07
2019-04-03T06:30:00.069Z,11.27
2019-04-03T06:32:30.480Z,12.17
2019-04-03T06:35:01.024Z,11.80
2019-04-03T06:37:31.539Z,11.40
2019-04-03T06:40:03.293Z,11.93
2019-04-03T06:42:34.399Z,12.07
2019-04-03T06:45:05.547Z,12.30
2019-04-03T06:47:35.929Z,11.60
2019-04-03T06:50:07.398Z,10.80
2019-04-03T06:52:37.959Z,10.83
2019-04-03T06:55:08.517Z,10.87
2019-04-03T06:57:39.748Z,11.10
2019-04-03T07:00:10.694Z,10.77
2019-04-03T07:02:41.543Z,10.90
2019-04-03T07:05:12.025Z,11.70
2019-04-03T07:07:42.703Z,9.63
2019-04-03T07:10:24.079Z,10.20
2019-04-03T07:12:47.830Z,11.43
2019-04-03T07:15:17.486Z,10.50
2019-04-03T07:17:47.994Z,10.30
2019-04-03T07:20:20.137Z,10.20
2019-04-03T07:22:50.685Z,11.10
2019-04-03T07:25:21.387Z,10.97
2019-04-03T07:27:51.902Z,10.80
2019-04-03T07:30:22.511Z,10.20
2019-04-03T07:32:53.028Z,10.43
2019-04-03T07:35:23.396Z,10.80
2019-04-03T07:37:53.925Z,10.23
2019-04-03T07:40:24.392Z,11.23
2019-04-03T07:42:56.005Z,11.30
2019-04-03T07:45:27.202Z,10.77
2019-04-03T07:47:57.914Z,11.33
2019-04-03T07:50:28.434Z,10.97
2019-04-03T07:52:58.894Z,11.20
2019-04-03T07:55:29.557Z,10.63
2019-04-03T07:58:01.040Z,10.63
2019-04-03T08:00:31.998Z,11.33
2019-04-03T08:03:02.647Z,10.37
2019-04-03T08:05:33.247Z,10.43
2019-04-03T08:08:03.769Z,10.63
2019-04-03T08:10:37.138Z,11.40
2019-04-03T08:13:07.613Z,12.00
2019-04-03T08:15:38.211Z,10.77
2019-04-03T08:18:08.621Z,12.23
2019-04-03T08:20:39.368Z,11.37
2019-04-03T08:23:09.808Z,11.90
2019-04-03T08:25:42.405Z,10.33
2019-04-03T08:28:12.370Z,11.30
2019-04-03T08:30:42.869Z,11.60
2019-04-03T08:33:17.396Z,11.30
2019-04-03T08:35:46.648Z,11.87
2019-04-03T08:38:17.165Z,13.00
2019-04-03T08:40:48.002Z,11.73
2019-04-03T08:43:18.595Z,11.10
2019-04-03T08:45:49.136Z,12.83
2019-04-03T08:48:19.598Z,13.00
2019-04-03T08:50:50.047Z,11.67
2019-04-03T08:53:20.491Z,12.87
2019-04-03T08:55:50.956Z,12.87
2019-04-03T08:58:22.110Z,12.77
2019-04-03T09:00:53.757Z,12.60
2019-04-03T09:03:24.310Z,11.40
2019-04-03T09:05:55.848Z,13.77
2019-04-03T09:08:27.145Z,12.27
2019-04-03T09:10:57.702Z,13.40
2019-04-03T09:13:28.700Z,14.17
2019-04-03T09:16:00.263Z,13.87
2019-04-03T09:18:30.965Z,13.90
2019-04-03T09:21:01.580Z,13.17
2019-04-03T09:23:31.976Z,13.70
2019-04-03T09:26:03.802Z,14.87
2019-04-03T09:28:34.323Z,14.70
2019-04-03T09:31:04.801Z,14.40
2019-04-03T09:33:35.177Z,15.37
2019-04-03T09:36:05.722Z,14.47
2019-04-03T09:38:36.528Z,13.87
2019-04-03T09:41:06.953Z,13.90
2019-04-03T09:43:39.409Z,14.73
2019-04-03T09:46:09.546Z,14.90
2019-04-03T09:48:39.951Z,14.30
2019-04-03T09:51:10.646Z,13.70
2019-04-03T09:53:41.180Z,14.07
2019-04-03T09:56:12.062Z,15.13
2019-04-03T09:58:42.995Z,14.83
2019-04-03T10:01:17.765Z,14.90
2019-04-03T10:03:45.796Z,13.87
2019-04-03T10:06:16.331Z,13.40
2019-04-03T10:08:47.150Z,12.73
2019-04-03T10:11:19.600Z,14.13
2019-04-03T10:13:49.875Z,14.23
2019-04-03T10:16:20.476Z,13.50
2019-04-03T10:18:51.412Z,13.03
2019-04-03T10:21:22.244Z,13.73
2019-04-03T10:23:52.805Z,13.27
2019-04-03T10:26:23.257Z,13.63
2019-04-03T10:28:53.840Z,13.03
2019-04-03T10:31:24.839Z,12.73
2019-04-03T10:33:55.291Z,11.80
2019-04-03T10:36:25.685Z,11.20
2019-04-03T10:38:56.249Z,12.30
2019-04-03T10:41:28.673Z,11.97
2019-04-03T10:43:59.262Z,12.23
2019-04-03T10:46:29.914Z,12.60
2019-04-03T10:49:01.675Z,11.30
2019-04-03T10:51:32.203Z,11.40
2019-04-03T10:54:02.964Z,11.93
2019-04-03T10:56:33.419Z,12.00
2019-04-03T10:59:10.999Z,11.47
2019-04-03T11:01:36.706Z,12.03
2019-04-03T11:04:07.228Z,12.13
2019-04-03T11:06:37.916Z,12.90
2019-04-03T11:09:10.457Z,14.10
2019-04-03T11:11:42.967Z,11.27
2019-04-03T11:14:13.532Z,11.57
2019-04-03T11:16:46.511Z,11.67
2019-04-03T11:19:16.044Z,11.67
2019-04-03T11:21:46.429Z,11.33
2019-04-03T11:24:17.027Z,11.90
2019-04-03T11:26:49.024Z,11.83
2019-04-03T11:29:19.599Z,10.03
2019-04-03T11:31:50.072Z,10.90
2019-04-03T11:34:21.397Z,10.33
2019-04-03T11:36:52.188Z,10.37
2019-04-03T11:39:22.626Z,10.53
2019-04-03T11:41:55.075Z,10.17
2019-04-03T11:44:25.239Z,10.90
2019-04-03T11:46:56.114Z,11.53
2019-04-03T11:49:26.794Z,11.03
2019-04-03T11:51:58.959Z,11.53
2019-04-03T11:54:29.737Z,11.10
2019-04-03T11:57:00.272Z,11.93
2019-04-03T11:59:30.724Z,10.77
2019-04-03T12:02:01.258Z,11.33
2019-04-03T12:04:31.704Z,12.00
2019-04-03T12:07:02.142Z,11.07
2019-04-03T12:09:32.999Z,11.00
2019-04-03T12:12:05.513Z,10.53
2019-04-03T12:14:38.184Z,9.93
2019-04-03T12:17:10.157Z,8.40
2019-04-03T12:19:40.603Z,8.90
2019-04-03T12:22:11.160Z,8.37
2019-04-03T12:24:41.672Z,9.07
2019-04-03T12:27:14.053Z,7.93
2019-04-03T12:29:44.396Z,7.70
2019-04-03T12:32:15.045Z,7.37
2019-04-03T12:34:45.520Z,5.20
2019-04-03T12:37:18.146Z,5.13
2019-04-03T12:39:48.367Z,5.27
2019-04-03T12:42:18.833Z,4.30
2019-04-03T12:44:49.284Z,4.10
2019-04-03T12:47:19.788Z,3.93
2019-04-03T12:49:51.957Z,4.10
2019-04-03T12:52:23.219Z,4.30
2019-04-03T12:54:54.591Z,3.83
2019-04-03T12:57:25.378Z,3.70
2019-04-03T12:59:56.632Z,4.00
2019-04-03T13:02:27.307Z,3.67
2019-04-03T13:05:00.278Z,4.00
2019-04-03T13:07:30.556Z,4.17
2019-04-03T13:10:01.711Z,4.93
2019-04-03T13:12:32.279Z,4.07
2019-04-03T13:15:04.592Z,3.80
2019-04-03T13:17:34.835Z,4.07
2019-04-03T13:20:06.639Z,4.00
2019-04-03T13:22:37.750Z,5.03
2019-04-03T13:25:09.134Z,4.43
2019-04-03T13:27:39.770Z,4.53
2019-04-03T13:30:13.112Z,4.83
2019-04-03T13:32:51.881Z,4.30
2019-04-03T13:35:16.750Z,4.83
2019-04-03T13:37:47.577Z,4.10
2019-04-03T13:40:18.828Z,4.33
2019-04-03T13:42:49.644Z,4.50
2019-04-03T13:45:20.511Z,4.50
2019-04-03T13:47:51.036Z,5.23
2019-04-03T13:50:22.500Z,4.37
2019-04-03T13:52:54.045Z,4.37
2019-04-03T13:55:24.668Z,4.53
2019-04-03T13:57:55.212Z,4.20
2019-04-03T14:00:25.747Z,4.57
2019-04-03T14:02:57.769Z,4.93
2019-04-03T14:05:32.340Z,4.40
2019-04-03T14:08:00.715Z,4.00
2019-04-03T14:10:31.197Z,3.97
2019-04-03T14:13:01.680Z,3.97
2019-04-03T14:15:32.455Z,3.93
2019-04-03T14:18:03.033Z,3.70
2019-04-03T14:20:33.477Z,3.97
2019-04-03T14:23:04.600Z,4.30
2019-04-03T14:25:38.031Z,4.90
2019-04-03T14:28:07.582Z,4.60
2019-04-03T14:30:38.387Z,5.13
2019-04-03T14:33:08.822Z,4.30
2019-04-03T14:35:48.976Z,4.27
2019-04-03T14:38:12.366Z,4.30
2019-04-03T14:40:43.535Z,4.80
2019-04-03T14:43:15.268Z,4.37
2019-04-03T14:45:52.831Z,3.87
2019-04-03T14:48:24.121Z,3.10
2019-04-03T14:50:55.536Z,3.10
2019-04-03T14:53:26.070Z,2.77
2019-04-03T14:55:59.805Z,2.60
2019-04-03T14:58:28.655Z,1.40
2019-04-03T15:00:59.092Z,1.50
2019-04-03T15:03:29.450Z,1.30
2019-04-03T15:06:00.395Z,1.50
2019-04-03T15:08:31.334Z,1.20
2019-04-03T15:11:03.006Z,1.30
2019-04-03T15:13:34.314Z,1.27
2019-04-03T15:16:05.234Z,1.30
2019-04-03T15:18:36.171Z,1.33
2019-04-03T15:21:06.753Z,1.50
2019-04-03T15:23:40.440Z,1.20
2019-04-03T15:26:09.440Z,1.50
2019-04-03T15:28:39.902Z,1.47
2019-04-03T15:31:11.981Z,1.43
2019-04-03T15:33:42.501Z,1.50
2019-04-03T15:36:13.468Z,1.70
2019-04-03T15:38:45.302Z,1.70
2019-04-03T15:41:16.226Z,3.20
2019-04-03T15:43:47.733Z,1.93
2019-04-03T15:46:18.912Z,1.40
2019-04-03T15:48:51.037Z,1.80
2019-04-03T15:51:21.410Z,1.20
2019-04-03T15:53:51.878Z,1.77
2019-04-03T15:56:22.365Z,1.70
2019-04-03T15:58:53.094Z,1.47
2019-04-03T16:01:23.578Z,1.60
2019-04-03T16:03:54.453Z,1.50
2019-04-03T16:06:24.974Z,1.80
2019-04-03T16:08:55.529Z,1.70
2019-04-03T16:11:27.003Z,1.70
2019-04-03T16:13:58.098Z,1.47
2019-04-03T16:16:29.377Z,1.20
2019-04-03T16:19:00.461Z,1.20
2019-04-03T16:21:31.652Z,1.90
2019-04-03T16:24:02.713Z,2.03
2019-04-03T16:26:33.712Z,2.00
2019-04-03T16:29:06.639Z,2.10
2019-04-03T16:31:36.568Z,2.20
2019-04-03T16:34:09.387Z,2.10
2019-04-03T16:36:39.571Z,1.97
2019-04-03T16:39:10.430Z,1.77
2019-04-03T16:41:43.296Z,1.80
2019-04-03T16:44:13.217Z,1.83
2019-04-03T16:46:43.658Z,1.57
2019-04-03T16:49:14.220Z,1.80
2019-04-03T16:51:44.760Z,2.00
2019-04-03T16:54:15.652Z,1.90
2019-04-03T16:56:47.001Z,1.90
2019-04-03T16:59:18.322Z,1.83
2019-04-03T17:01:48.872Z,1.47
2019-04-03T17:04:26.108Z,1.87
2019-04-03T17:06:51.383Z,1.80
2019-04-03T17:09:21.796Z,1.40
2019-04-03T17:11:52.250Z,1.50
2019-04-03T17:14:24.417Z,1.60
2019-04-03T17:16:55.025Z,1.50
2019-04-03T17:19:25.607Z,1.70
2019-04-03T17:21:56.158Z,1.90
2019-04-03T17:24:26.931Z,1.40
2019-04-03T17:26:59.569Z,1.50
2019-04-03T17:29:29.588Z,2.30
2019-04-03T17:32:00.054Z,1.70
2019-04-03T17:34:30.514Z,1.60
2019-04-03T17:37:01.426Z,1.77
2019-04-03T17:39:31.878Z,1.50
2019-04-03T17:42:02.302Z,1.30
2019-04-03T17:44:32.736Z,1.67
2019-04-03T17:47:03.285Z,1.53
2019-04-03T17:49:33.789Z,1.60
2019-04-03T17:52:05.151Z,1.43
2019-04-03T17:54:38.288Z,2.10
2019-04-03T17:57:08.562Z,2.53
2019-04-03T17:59:39.005Z,2.00
2019-04-03T18:02:09.424Z,2.10
2019-04-03T18:04:39.949Z,2.10
2019-04-03T18:07:12.119Z,2.30
2019-04-03T18:09:42.847Z,1.97
2019-04-03T18:12:13.484Z,2.30
2019-04-03T18:14:43.953Z,2.40
2019-04-03T18:17:14.341Z,2.20
2019-04-03T18:19:45.101Z,1.60
2019-04-03T18:22:15.597Z,1.70
2019-04-03T18:24:46.120Z,1.67
2019-04-03T18:27:16.648Z,1.80
2019-04-03T18:29:47.063Z,1.77
2019-04-03T18:32:17.616Z,1.67
2019-04-03T18:34:51.061Z,1.83
2019-04-03T18:37:20.084Z,1.47
2019-04-03T18:39:51.508Z,2.00
2019-04-03T18:42:22.073Z,1.60
2019-04-03T18:44:52.546Z,2.27
2019-04-03T18:47:22.998Z,1.97
2019-04-03T18:49:55.496Z,2.03
2019-04-03T18:52:25.623Z,1.93
2019-04-03T18:54:56.061Z,1.90
2019-04-03T18:57:26.477Z,1.97
2019-04-03T19:00:00.355Z,2.30
2019-04-03T19:02:29.198Z,2.40
2019-04-03T19:05:02.357Z,2.17
2019-04-03T19:07:31.921Z,2.63
2019-04-03T19:10:07.357Z,2.40
2019-04-03T19:12:36.066Z,2.40
2019-04-03T19:15:08.163Z,2.40
2019-04-03T19:17:38.551Z,2.20
2019-04-03T19:20:11.000Z,2.23
2019-04-03T19:22:41.939Z,2.00
2019-04-03T19:25:12.425Z,1.70
2019-04-03T19:27:42.840Z,2.00
2019-04-03T19:30:15.295Z,2.00
2019-04-03T19:32:45.750Z,2.20
2019-04-03T19:35:16.299Z,1.93
2019-04-03T19:37:46.692Z,2.00
2019-04-03T19:40:17.186Z,2.43
2019-04-03T19:42:48.957Z,2.57
2019-04-03T19:45:21.359Z,2.07
2019-04-03T19:47:54.598Z,2.50
2019-04-03T19:50:24.064Z,2.40
2019-04-03T19:52:54.554Z,2.67
2019-04-03T19:55:24.962Z,1.90
2019-04-03T19:57:57.466Z,2.10
2019-04-03T20:00:27.734Z,2.60
2019-04-03T20:02:58.382Z,2.47
2019-04-03T20:05:29.597Z,2.50
2019-04-03T20:08:00.074Z,1.87
2019-04-03T20:10:33.524Z,1.70
2019-04-03T20:13:02.751Z,2.33
2019-04-03T20:15:33.147Z,1.70
2019-04-03T20:18:03.578Z,2.30
2019-04-03T20:20:34.026Z,1.83
2019-04-03T20:23:04.508Z,2.57
2019-04-03T20:25:34.928Z,2.37
2019-04-03T20:28:05.545Z,2.30
2019-04-03T20:30:36.013Z,2.60
2019-04-03T20:33:06.424Z,2.70
2019-04-03T20:35:36.970Z,2.60
2019-04-03T20:38:07.368Z,3.57
2019-04-03T20:40:39.825Z,3.43
2019-04-03T20:43:11.918Z,3.30
2019-04-03T20:45:42.463Z,3.07
2019-04-03T20:48:12.887Z,2.60
2019-04-03T20:50:43.367Z,2.20
2019-04-03T20:53:16.783Z,2.30
2019-04-03T20:55:46.724Z,2.30
2019-04-03T20:58:17.086Z,2.50
2019-04-03T21:00:49.972Z,2.10
2019-04-03T21:03:19.593Z,2.10
2019-04-03T21:05:50.033Z,2.50
2019-04-03T21:08:20.514Z,2.00
2019-04-03T21:10:51.903Z,2.07
2019-04-03T21:13:22.669Z,2.23
2019-04-03T21:15:53.175Z,2.20
2019-04-03T21:18:23.640Z,2.00
2019-04-03T21:20:54.710Z,1.70
2019-04-03T21:23:25.738Z,1.70
2019-04-03T21:25:56.179Z,1.43
2019-04-03T21:28:26.653Z,1.50
2019-04-03T21:30:57.002Z,1.93
2019-04-03T21:33:30.518Z,1.27
2019-04-03T21:35:59.729Z,1.67
2019-04-03T21:38:30.202Z,1.70
2019-04-03T21:41:00.554Z,1.80
2019-04-03T21:43:30.956Z,1.60
2019-04-03T21:46:01.341Z,1.97
2019-04-03T21:48:31.788Z,2.00
2019-04-03T21:51:02.380Z,1.67
2019-04-03T21:53:32.751Z,1.33
2019-04-03T21:56:03.177Z,2.13
2019-04-03T21:58:33.533Z,1.33
2019-04-03T22:01:25.274Z,1.90
2019-04-03T22:03:55.721Z,1.57
2019-04-03T22:06:27.598Z,1.93
2019-04-03T22:09:00.508Z,1.53
2019-04-03T22:11:30.414Z,1.60
2019-04-03T22:14:00.970Z,1.73
2019-04-03T22:16:31.445Z,2.00
2019-04-03T22:19:01.782Z,1.80
2019-04-03T22:21:32.945Z,1.90
2019-04-03T22:24:06.598Z,1.80
2019-04-03T22:26:35.899Z,1.60
2019-04-03T22:29:06.293Z,1.40
2019-04-03T22:31:36.691Z,1.80
2019-04-03T22:34:07.108Z,1.53
2019-04-03T22:36:37.630Z,1.70
2019-04-03T22:39:08.798Z,1.60
2019-04-03T22:41:40.948Z,2.60
2019-04-03T22:44:11.524Z,1.87
2019-04-03T22:46:41.872Z,2.13
2019-04-03T22:49:12.366Z,1.90
2019-04-03T22:51:42.801Z,2.03
2019-04-03T22:54:13.339Z,1.90
2019-04-03T22:56:43.838Z,2.30
2019-04-03T22:59:15.885Z,2.30
2019-04-03T23:01:46.303Z,2.13
2019-04-03T23:04:16.694Z,2.03
2019-04-03T23:06:49.375Z,2.10
2019-04-03T23:09:19.169Z,3.40
2019-04-03T23:11:49.685Z,2.17
2019-04-03T23:14:20.132Z,3.10
2019-04-03T23:16:50.617Z,2.97
2019-04-03T23:19:21.084Z,3.80
2019-04-03T23:21:52.900Z,3.23
2019-04-03T23:24:23.862Z,3.07
2019-04-03T23:26:54.383Z,3.97
2019-04-03T23:29:24.957Z,3.10
2019-04-03T23:31:55.471Z,3.07
2019-04-03T23:34:25.857Z,3.30
2019-04-03T23:36:56.320Z,3.20
2019-04-03T23:39:28.012Z,3.33
2019-04-03T23:41:58.858Z,3.33
2019-04-03T23:44:29.369Z,3.33
2019-04-03T23:46:59.859Z,3.90
2019-04-03T23:49:30.312Z,3.60
2019-04-03T23:52:00.797Z,4.43
2019-04-03T23:54:33.574Z,4.17
2019-04-03T23:57:03.527Z,3.80
2019-04-03T23:59:34.007Z,3.93
